createdAt,value
2019-01-03T00:01:01.098Z,102072.40
2019-01-03T00:06:21.403Z,102081.04
2019-01-03T00:11:38.291Z,102080.47
2019-01-03T00:16:58.914Z,102085.86
2019-01-03T00:22:23.236Z,102088.39
2019-01-03T00:27:43.248Z,102088.86
2019-01-03T00:33:10.191Z,102086.78
2019-01-03T00:38:25.406Z,102088.70
2019-01-03T00:43:45.512Z,102087.35
2019-01-03T00:49:07.051Z,102092.67
2019-01-03T00:54:34.278Z,102104.66
2019-01-03T00:59:56.941Z,102106.34
2019-01-03T01:05:33.424Z,102107.91
2019-01-03T01:10:55.478Z,102107.80
2019-01-03T01:16:16.110Z,102125.94
2019-01-03T01:21:37.802Z,102131.08
2019-01-03T01:26:57.884Z,102140.62
2019-01-03T01:32:17.407Z,102141.52
2019-01-03T01:37:50.337Z,102140.18
2019-01-03T01:43:24.867Z,102140.23
2019-01-03T01:48:44.973Z,102150.02
2019-01-03T01:54:01.759Z,102152.66
2019-01-03T01:59:31.929Z,102148.34
2019-01-03T02:04:57.148Z,102146.53
2019-01-03T02:10:11.005Z,102144.38
2019-01-03T02:15:50.555Z,102144.28
2019-01-03T02:21:27.064Z,102129.83
2019-01-03T02:26:47.649Z,102135.77
2019-01-03T02:32:09.054Z,102138.04
2019-01-03T02:37:29.595Z,102136.34
2019-01-03T02:42:44.403Z,102133.16
2019-01-03T02:48:04.888Z,102120.39
2019-01-03T02:53:19.777Z,102123.99
2019-01-03T02:58:41.401Z,102118.55
2019-01-03T03:04:05.052Z,102120.98
2019-01-03T03:09:21.726Z,102121.33
2019-01-03T03:14:55.458Z,102117.28
2019-01-03T03:20:16.063Z,102112.28
2019-01-03T03:25:34.760Z,102114.73
2019-01-03T03:31:11.619Z,102125.77
2019-01-03T03:36:42.374Z,102120.61
2019-01-03T03:42:09.937Z,102124.17
2019-01-03T03:47:30.095Z,102133.77
2019-01-03T03:52:50.550Z,102135.44
2019-01-03T03:58:24.428Z,102128.84
2019-01-03T04:03:44.402Z,102129.80
2019-01-03T04:09:11.726Z,102132.18
2019-01-03T04:14:28.403Z,102131.32
2019-01-03T04:19:49.966Z,102130.92
2019-01-03T04:25:03.579Z,102133.12
2019-01-03T04:30:19.922Z,102142.36
2019-01-03T04:35:40.374Z,102138.37
2019-01-03T04:41:00.405Z,102142.88
2019-01-03T04:46:22.376Z,102140.73
2019-01-03T04:51:52.178Z,102138.07
2019-01-03T04:57:12.311Z,102137.85
2019-01-03T05:02:37.767Z,102135.86
2019-01-03T05:07:57.915Z,102126.08
2019-01-03T05:13:34.552Z,102129.54
2019-01-03T05:19:11.193Z,102129.66
2019-01-03T05:24:35.810Z,102134.42
2019-01-03T05:30:00.205Z,102128.13
2019-01-03T05:35:14.586Z,102124.38
2019-01-03T05:40:54.299Z,102133.48
2019-01-03T05:46:14.868Z,102129.11
2019-01-03T05:51:35.207Z,102123.48
2019-01-03T05:56:55.064Z,102122.58
2019-01-03T06:02:17.520Z,102139.83
2019-01-03T06:07:45.013Z,102140.63
2019-01-03T06:13:06.038Z,102147.66
2019-01-03T06:18:26.056Z,102139.74
2019-01-03T06:23:50.442Z,102148.19
2019-01-03T06:29:21.150Z,102140.73
2019-01-03T06:34:43.019Z,102135.02
2019-01-03T06:40:19.498Z,102132.02
2019-01-03T06:45:41.120Z,102134.70
2019-01-03T06:51:04.418Z,102144.94
2019-01-03T06:56:30.626Z,102143.94
2019-01-03T07:02:01.099Z,102146.36
2019-01-03T07:07:41.167Z,102136.62
2019-01-03T07:13:08.740Z,102138.34
2019-01-03T07:18:36.054Z,102147.18
2019-01-03T07:24:00.649Z,102157.53
2019-01-03T07:29:34.773Z,102156.39
2019-01-03T07:35:14.453Z,102163.39
2019-01-03T07:40:44.482Z,102179.21
2019-01-03T07:46:04.546Z,102183.53
2019-01-03T07:51:25.022Z,102179.58
2019-01-03T07:56:45.688Z,102189.00
2019-01-03T08:02:06.150Z,102189.61
2019-01-03T08:07:35.114Z,102194.88
2019-01-03T08:13:02.332Z,102207.41
2019-01-03T08:18:31.634Z,102212.98
2019-01-03T08:24:00.821Z,102210.70
2019-01-03T08:29:18.468Z,102208.45
2019-01-03T08:34:48.523Z,102211.11
2019-01-03T08:40:11.818Z,102209.98
2019-01-03T08:45:42.623Z,102212.59
2019-01-03T08:51:19.078Z,102210.73
2019-01-03T08:56:46.092Z,102204.53
2019-01-03T09:02:06.554Z,102204.65
2019-01-03T09:07:39.012Z,102210.97
2019-01-03T09:12:56.059Z,102210.36
2019-01-03T09:18:17.188Z,102199.53
2019-01-03T09:23:48.216Z,102198.98
2019-01-03T09:29:10.419Z,102194.76
2019-01-03T09:34:24.424Z,102203.17
2019-01-03T09:39:50.061Z,102200.95
2019-01-03T09:44:52.031Z,102183.81
2019-01-03T09:49:54.191Z,102179.26
2019-01-03T09:54:56.099Z,102170.68
2019-01-03T09:59:58.121Z,102164.06
2019-01-03T10:05:12.845Z,102162.70
2019-01-03T10:10:14.774Z,102160.80
2019-01-03T10:15:16.892Z,102152.98
2019-01-03T10:20:18.826Z,102150.72
2019-01-03T10:25:20.734Z,102152.19
2019-01-03T10:30:23.628Z,102146.75
2019-01-03T10:35:25.543Z,102141.84
2019-01-03T10:40:27.491Z,102140.27
2019-01-03T10:45:29.411Z,102138.16
2019-01-03T10:50:31.622Z,102139.88
2019-01-03T10:55:33.538Z,102132.61
2019-01-03T11:00:35.656Z,102133.52
2019-01-03T11:05:37.932Z,102130.01
2019-01-03T11:10:40.200Z,102133.08
2019-01-03T11:15:43.700Z,102131.84
2019-01-03T11:21:06.835Z,102138.84
2019-01-03T11:26:09.554Z,102135.77
2019-01-03T11:31:12.459Z,102136.83
2019-01-03T11:36:14.987Z,102135.77
2019-01-03T11:41:35.732Z,102132.88
2019-01-03T11:46:57.072Z,102142.64
2019-01-03T11:52:17.616Z,102135.35
2019-01-03T11:57:38.082Z,102142.22
2019-01-03T12:02:58.612Z,102143.78
2019-01-03T12:08:19.115Z,102136.77
2019-01-03T12:13:39.779Z,102138.85
2019-01-03T12:19:01.384Z,102132.02
2019-01-03T12:24:30.562Z,102123.91
2019-01-03T12:29:49.248Z,102113.62
2019-01-03T12:35:11.802Z,102116.72
2019-01-03T12:40:35.514Z,102103.34
2019-01-03T12:45:57.528Z,102107.31
2019-01-03T12:51:19.311Z,102116.60
2019-01-03T12:56:41.044Z,102104.73
2019-01-03T13:02:02.897Z,102102.48
2019-01-03T13:07:24.809Z,102106.23
2019-01-03T13:12:49.022Z,102108.02
2019-01-03T13:18:11.629Z,102103.62
2019-01-03T13:23:41.598Z,102113.88
2019-01-03T13:29:09.037Z,102120.56
2019-01-03T13:34:34.113Z,102122.73
2019-01-03T13:39:55.106Z,102122.83
2019-01-03T13:45:16.582Z,102122.10
2019-01-03T13:50:38.107Z,102129.97
2019-01-03T14:02:35.168Z,102126.00
2019-01-03T14:07:56.235Z,102125.64
2019-01-03T14:13:17.636Z,102137.88
2019-01-03T14:18:38.703Z,102142.43
2019-01-03T14:23:59.947Z,102129.05
2019-01-03T14:29:02.789Z,102130.45
2019-01-03T14:34:06.977Z,102132.50
2019-01-03T14:39:09.490Z,102127.93
2019-01-03T14:44:37.152Z,102129.03
2019-01-03T14:49:48.998Z,102128.53
2019-01-03T14:54:53.204Z,102132.24
2019-01-03T14:59:59.796Z,102129.39
2019-01-03T15:05:14.310Z,102130.78
2019-01-03T15:10:24.276Z,102139.83
2019-01-03T15:15:47.133Z,102137.18
2019-01-03T15:20:58.124Z,102138.80
2019-01-03T15:26:02.359Z,102136.89
2019-01-03T15:31:11.007Z,102145.56
2019-01-03T15:36:16.367Z,102138.68
2019-01-03T15:41:18.884Z,102148.02
2019-01-03T15:46:21.216Z,102156.10
2019-01-03T15:51:25.171Z,102163.26
2019-01-03T15:56:28.783Z,102165.65
2019-01-03T16:01:31.389Z,102164.92
2019-01-03T16:06:39.023Z,102172.53
2019-01-03T16:11:42.738Z,102171.48
2019-01-03T16:16:45.671Z,102172.54
2019-01-03T16:21:49.876Z,102168.56
2019-01-03T16:26:52.914Z,102178.83
2019-01-03T16:31:55.436Z,102188.47
2019-01-03T16:36:57.805Z,102194.02
2019-01-03T16:42:00.351Z,102192.83
2019-01-03T16:47:05.021Z,102187.77
2019-01-03T16:52:08.795Z,102192.87
2019-01-03T16:57:11.083Z,102200.44
2019-01-03T17:02:14.633Z,102196.67
2019-01-03T17:07:18.241Z,102195.26
2019-01-03T17:12:22.860Z,102198.59
2019-01-03T17:17:26.586Z,102202.22
2019-01-03T17:22:29.038Z,102198.50
2019-01-03T17:27:32.417Z,102193.92
2019-01-03T17:32:35.164Z,102192.34
2019-01-03T17:37:37.628Z,102196.20
2019-01-03T17:42:41.107Z,102190.98
2019-01-03T17:47:43.609Z,102193.08
2019-01-03T17:52:46.335Z,102182.61
2019-01-03T17:57:48.812Z,102183.29
2019-01-03T18:02:51.842Z,102177.66
2019-01-03T18:07:55.407Z,102177.05
2019-01-03T18:12:58.131Z,102185.01
2019-01-03T18:18:00.793Z,102184.16
2019-01-03T18:23:03.377Z,102183.34
2019-01-03T18:28:07.975Z,102181.68
2019-01-03T18:33:14.034Z,102188.30
2019-01-03T18:38:16.611Z,102196.13
2019-01-03T18:43:19.732Z,102195.35
2019-01-03T18:48:23.846Z,102202.03
2019-01-03T18:53:26.625Z,102209.37
2019-01-03T18:58:29.950Z,102211.05
2019-01-03T19:03:32.810Z,102217.75
2019-01-03T19:08:36.510Z,102221.56
2019-01-03T19:13:39.167Z,102220.32
2019-01-03T19:18:41.847Z,102215.79
2019-01-03T19:23:44.368Z,102227.78
2019-01-03T19:28:46.965Z,102229.02
2019-01-03T19:33:49.344Z,102241.79
2019-01-03T19:38:52.074Z,102229.76
2019-01-03T19:43:54.908Z,102226.72
2019-01-03T19:48:57.515Z,102238.72
2019-01-03T19:54:00.006Z,102237.87
2019-01-03T19:59:02.419Z,102246.94
2019-01-03T20:04:05.054Z,102243.92
2019-01-03T20:09:07.567Z,102254.17
2019-01-03T20:14:10.110Z,102260.66
2019-01-03T20:19:14.028Z,102256.95
2019-01-03T20:24:23.063Z,102266.46
2019-01-03T20:29:28.615Z,102266.56
2019-01-03T20:34:41.941Z,102262.20
2019-01-03T20:39:47.528Z,102260.02
2019-01-03T20:44:58.672Z,102259.98
2019-01-03T20:50:10.960Z,102257.95
2019-01-03T20:55:17.248Z,102251.26
2019-01-03T21:00:21.880Z,102251.65
2019-01-03T21:05:25.060Z,102255.03
2019-01-03T21:10:27.799Z,102255.03
2019-01-03T21:15:30.443Z,102254.42
2019-01-03T21:20:33.582Z,102252.23
2019-01-03T21:25:36.595Z,102254.38
2019-01-03T21:30:41.184Z,102265.09
2019-01-03T21:35:45.371Z,102259.82
2019-01-03T21:47:07.705Z,102254.50
2019-01-03T21:52:14.812Z,102240.73
2019-01-03T21:57:21.919Z,102241.77
2019-01-03T22:02:26.077Z,102241.73
2019-01-03T22:07:30.909Z,102242.17
2019-01-03T22:12:36.712Z,102240.53
2019-01-03T22:17:39.569Z,102230.28
2019-01-03T22:22:42.267Z,102232.25
2019-01-03T22:27:46.326Z,102215.94
2019-01-03T22:32:48.744Z,102221.39
2019-01-03T22:37:51.447Z,102217.30
2019-01-03T22:42:54.909Z,102213.09
2019-01-03T22:47:57.836Z,102221.97
2019-01-03T22:53:01.309Z,102223.33
2019-01-03T22:58:06.839Z,102225.00
2019-01-03T23:03:12.578Z,102227.30
2019-01-03T23:08:15.514Z,102235.54
2019-01-03T23:13:18.294Z,102236.45
2019-01-03T23:18:21.128Z,102226.09
2019-01-03T23:23:26.307Z,102232.95
2019-01-03T23:28:29.238Z,102229.76
2019-01-03T23:33:31.854Z,102235.75
2019-01-03T23:38:34.542Z,102233.65
2019-01-03T23:44:54.111Z,102229.33
2019-01-03T23:50:03.788Z,102228.11
2019-01-03T23:55:07.286Z,102219.84
